Overton RPC :: 200-A

liberation: 2021-09-11  07:00     latitude: 33.575198     longitude: -86.664147 55 birds
# LOFT PRING MILES ARRIVAL SPEED ToWin
1 VALHALLA LOFTS IF21-E-1416 210.359 2021-09-11 11:59:50.121 1234.786 00:00:00
2 VALHALLA LOFTS IF21-VALH-0170 210.359 2021-09-11 11:59:51.708 1234.678 00:00:02
3 VALHALLA LOFTS IF21-E-1443 210.359 2021-09-11 11:59:54.002 1234.520 00:00:04
4 VALHALLA LOFTS AU21-ARPU-9000 210.359 2021-09-11 11:59:54.907 1234.458 00:00:05
5 VALHALLA LOFTS IF21-E-1446 210.359 2021-09-11 11:59:56.307 1234.362 00:00:06
6 VALHALLA LOFTS IF21-E-1445 210.359 2021-09-11 11:59:56.963 1234.317 00:00:07
7 VALHALLA LOFTS IF21-E-1498 210.359 2021-09-11 11:59:58.466 1234.214 00:00:08
8 VALHALLA LOFTS IF21-VALH-0102 210.359 2021-09-11 12:00:03.303 1233.882 00:00:13
9 VALHALLA LOFTS IF21-VALH-0147 210.359 2021-09-11 12:00:04.605 1233.793 00:00:14
10 VALHALLA LOFTS IF21-E-1450 210.359 2021-09-11 12:00:13.412 1233.190 00:00:23
11 VALHALLA LOFTS AU21-ARPU-8991 210.359 2021-09-11 12:00:26.998 1232.261 00:00:37
12 VALHALLA LOFTS IF21-VALH-0172 210.359 2021-09-11 12:03:02.939 1221.692 00:03:13
13 VALHALLA LOFTS AU21-ARPU-8989 210.359 2021-09-11 12:11:59.675 1186.664 00:12:10
14 VALHALLA LOFTS IF21-E-1411 210.359 2021-09-11 12:12:06.612 1186.224 00:12:16
15 VALHALLA LOFTS IF21-VALH-0112 210.359 2021-09-11 12:12:08.309 1186.117 00:12:18
16 VALHALLA LOFTS AU21-POP-0536 210.359 2021-09-11 12:12:13.325 1185.799 00:12:23
17 VALHALLA LOFTS IF21-VALH-0176 210.359 2021-09-11 12:12:47.548 1183.637 00:12:57
18 VALHALLA LOFTS IF21-E-1414 210.359 2021-09-11 12:13:08.373 1182.325 00:13:18
19 PHILBETTER LOFT IF21-E-1421 204.506 2021-09-11 12:22:23.951 1116.415 00:30:54
20 VALHALLA LOFTS IF21-E-1497 210.359 2021-09-11 12:32:26.322 1113.687 00:32:36
21 VALHALLA LOFTS IF21-VALH-0166 210.359 2021-09-11 12:43:12.186 1078.757 00:43:22
22 VALHALLA LOFTS IF21-VALH-0198 210.359 2021-09-11 12:45:58.038 1070.138 00:46:08
23 PHILBETTER LOFT IF21-E-1427 204.506 2021-09-11 13:37:03.395 906.499 01:45:34
24 VALHALLA LOFTS IF21-E-1495 210.359 2021-09-11 14:05:10.758 870.768 02:05:21
25 VALHALLA LOFTS IF21-VALH-0103 210.359 2021-09-11 14:17:56.339 845.398 02:18:06
26 VALHALLA LOFTS IF21-VALH-0153 210.359 2021-09-11 14:18:00.189 845.274 02:18:10
27 VALHALLA LOFTS IF21-VALH-0114 210.359 2021-09-11 14:18:01.826 845.221 02:18:12
28 PHILBETTER LOFT IF21-VALH-0119 204.506 2021-09-11 14:55:28.099 757.004 03:03:59
29 LET IT GO LOFT IF21-E-1402 217.162 2021-09-11 15:37:34.286 738.459 03:28:02
30 PHILBETTER LOFT AU21-ARPU-8998 204.506 2021-09-11 15:43:04.351 688.110 03:51:35
31 PHILBETTER LOFT AU21-ARPU-8973 204.506 2021-09-11 16:14:13.385 649.434 04:22:44
32 VALHALLA LOFTS IF21-VALH-0104 210.359 2021-09-11 17:13:45.734 603.218 05:13:56
33 VALHALLA LOFTS IF21-VALH-0151 210.359 2021-09-11 17:24:44.961 592.610 05:24:55
34 HONEY FARM LOFT AU21-NASH-9559 178.062 2021-09-11 16:49:44.103 531.406 05:35:56
BIG MOMMA'S LOFT IF21-E-1326 0 0000-00-00 00:00:00.000 0.000 00:00:00
BIG MOMMA'S LOFT IF21-E-1394 0 0000-00-00 00:00:00.000 0.000 00:00:00
BIG MOMMA'S LOFT IF21-E-1396 0 0000-00-00 00:00:00.000 0.000 00:00:00
HONEY FARM LOFT IF21-FOYS-5462 0 0000-00-00 00:00:00.000 0.000 00:00:00
HONEY FARM LOFT IF21-FOYS-5468 0 0000-00-00 00:00:00.000 0.000 00:00:00
HONEY FARM LOFT IF21-FOYS-5481 0 0000-00-00 00:00:00.000 0.000 00:00:00
HONEY FARM LOFT IF21-VALH-0141 0 0000-00-00 00:00:00.000 0.000 00:00:00
LET IT GO LOFT IF21-E-1404 0 0000-00-00 00:00:00.000 0.000 00:00:00
LET IT GO LOFT IF21-E-1407 0 0000-00-00 00:00:00.000 0.000 00:00:00
LET IT GO LOFT IF21-E-1457 0 0000-00-00 00:00:00.000 0.000 00:00:00
LET IT GO LOFT IF21-ORP-0413 0 0000-00-00 00:00:00.000 0.000 00:00:00
LET IT GO LOFT IF21-ORP-0426 0 0000-00-00 00:00:00.000 0.000 00:00:00
LET IT GO LOFT IF21-ORP-0442 0 0000-00-00 00:00:00.000 0.000 00:00:00
PHILBETTER LOFT AU21-ARPU-8971 0 0000-00-00 00:00:00.000 0.000 00:00:00
PHILBETTER LOFT IF21-E-1422 0 0000-00-00 00:00:00.000 0.000 00:00:00
PHILBETTER LOFT IF21-E-1572 0 0000-00-00 00:00:00.000 0.000 00:00:00
PHILBETTER LOFT IF21-VALH-0191 0 0000-00-00 00:00:00.000 0.000 00:00:00
VALHALLA LOFTS IF21-VALH-0145 0 0000-00-00 00:00:00.000 0.000 00:00:00
VALHALLA LOFTS IF21-VALH-0167 0 0000-00-00 00:00:00.000 0.000 00:00:00
VALHALLA LOFTS IF21-VALH-0169 0 0000-00-00 00:00:00.000 0.000 00:00:00
VALHALLA LOFTS IF21-VALH-0175 0 0000-00-00 00:00:00.000 0.000 00:00:00